sensor_id;sensor_type;location;lat;lon;timestamp;pressure;altitude;pressure_sealevel;temperature;humidity
75996;BME280;64681;49.738;9.004;2023-09-19T00:02:03;98970.91;;;15.42;94.65
75996;BME280;64681;49.738;9.004;2023-09-19T00:04:35;98976.06;;;15.16;96.44
75996;BME280;64681;49.738;9.004;2023-09-19T00:07:00;98978.56;;;15.36;95.95
75996;BME280;64681;49.738;9.004;2023-09-19T00:09:28;98981.34;;;15.47;95.37
75996;BME280;64681;49.738;9.004;2023-09-19T00:11:53;98980.50;;;15.39;95.98
75996;BME280;64681;49.738;9.004;2023-09-19T00:14:19;98977.13;;;15.46;96.44
75996;BME280;64681;49.738;9.004;2023-09-19T00:16:45;98983.63;;;15.45;96.57
75996;BME280;64681;49.738;9.004;2023-09-19T00:19:11;98979.28;;;15.78;95.07
75996;BME280;64681;49.738;9.004;2023-09-19T00:21:37;98991.00;;;16.04;93.47
75996;BME280;64681;49.738;9.004;2023-09-19T00:24:04;98989.13;;;16.08;91.95
75996;BME280;64681;49.738;9.004;2023-09-19T00:26:34;98992.63;;;16.19;91.25
75996;BME280;64681;49.738;9.004;2023-09-19T00:29:00;98990.34;;;16.21;91.07
75996;BME280;64681;49.738;9.004;2023-09-19T00:31:34;98987.28;;;16.26;91.03
75996;BME280;64681;49.738;9.004;2023-09-19T00:33:59;98985.84;;;16.47;90.17
75996;BME280;64681;49.738;9.004;2023-09-19T00:36:35;98986.94;;;16.32;90.26
75996;BME280;64681;49.738;9.004;2023-09-19T00:39:01;98987.34;;;16.41;90.20
75996;BME280;64681;49.738;9.004;2023-09-19T00:41:28;98995.06;;;16.39;90.56
75996;BME280;64681;49.738;9.004;2023-09-19T00:43:55;98996.63;;;16.43;89.97
75996;BME280;64681;49.738;9.004;2023-09-19T00:46:21;98999.69;;;16.45;90.33
75996;BME280;64681;49.738;9.004;2023-09-19T00:48:46;99001.66;;;16.56;89.91
75996;BME280;64681;49.738;9.004;2023-09-19T00:51:13;99008.94;;;16.48;90.22
75996;BME280;64681;49.738;9.004;2023-09-19T00:53:39;99008.84;;;16.26;91.97
75996;BME280;64681;49.738;9.004;2023-09-19T00:56:07;99004.34;;;16.52;90.66
75996;BME280;64681;49.738;9.004;2023-09-19T00:58:34;99005.94;;;16.64;89.58
75996;BME280;64681;49.738;9.004;2023-09-19T01:01:01;99008.25;;;16.69;89.23
75996;BME280;64681;49.738;9.004;2023-09-19T01:03:27;99004.00;;;16.65;89.28
75996;BME280;64681;49.738;9.004;2023-09-19T01:05:53;99002.09;;;16.69;89.02
75996;BME280;64681;49.738;9.004;2023-09-19T01:08:19;99004.78;;;16.65;89.37
75996;BME280;64681;49.738;9.004;2023-09-19T01:11:03;99003.69;;;16.77;89.24
75996;BME280;64681;49.738;9.004;2023-09-19T01:13:54;99011.00;;;16.80;89.14
75996;BME280;64681;49.738;9.004;2023-09-19T01:16:53;99010.63;;;16.82;88.96
75996;BME280;64681;49.738;9.004;2023-09-19T01:22:10;99021.00;;;16.72;89.54
75996;BME280;64681;49.738;9.004;2023-09-19T01:29:51;99026.88;;;16.92;88.87
75996;BME280;64681;49.738;9.004;2023-09-19T01:32:21;99031.44;;;16.92;89.23
75996;BME280;64681;49.738;9.004;2023-09-19T01:34:53;99042.66;;;16.94;88.94
75996;BME280;64681;49.738;9.004;2023-09-19T01:37:20;99039.81;;;16.61;90.95
75996;BME280;64681;49.738;9.004;2023-09-19T01:40:03;99041.44;;;16.81;91.04
75996;BME280;64681;49.738;9.004;2023-09-19T01:47:38;99040.00;;;17.01;89.53
75996;BME280;64681;49.738;9.004;2023-09-19T01:50:17;99041.91;;;16.97;91.15
75996;BME280;64681;49.738;9.004;2023-09-19T01:52:54;99045.38;;;16.94;90.74
75996;BME280;64681;49.738;9.004;2023-09-19T01:55:26;99049.56;;;16.88;91.66
75996;BME280;64681;49.738;9.004;2023-09-19T01:58:20;99052.97;;;16.77;93.80
75996;BME280;64681;49.738;9.004;2023-09-19T02:00:49;99051.66;;;16.42;96.21
75996;BME280;64681;49.738;9.004;2023-09-19T02:03:20;99052.09;;;16.55;95.72
75996;BME280;64681;49.738;9.004;2023-09-19T02:05:51;99050.97;;;16.60;95.07
75996;BME280;64681;49.738;9.004;2023-09-19T02:08:21;99056.00;;;16.65;95.13
75996;BME280;64681;49.738;9.004;2023-09-19T02:10:49;99057.16;;;16.64;95.98
75996;BME280;64681;49.738;9.004;2023-09-19T02:13:22;99057.84;;;16.50;96.59
75996;BME280;64681;49.738;9.004;2023-09-19T02:15:53;99058.91;;;16.31;98.40
75996;BME280;64681;49.738;9.004;2023-09-19T02:18:19;99055.09;;;16.39;97.27
75996;BME280;64681;49.738;9.004;2023-09-19T02:20:44;99059.00;;;16.53;97.09
75996;BME280;64681;49.738;9.004;2023-09-19T02:23:11;99060.56;;;16.57;96.96
75996;BME280;64681;49.738;9.004;2023-09-19T02:25:36;99063.72;;;16.70;95.43
75996;BME280;64681;49.738;9.004;2023-09-19T02:28:03;99067.56;;;16.69;95.60
75996;BME280;64681;49.738;9.004;2023-09-19T02:30:29;99069.84;;;16.64;95.69
75996;BME280;64681;49.738;9.004;2023-09-19T02:32:55;99074.13;;;16.72;95.89
75996;BME280;64681;49.738;9.004;2023-09-19T02:35:21;99074.97;;;16.83;94.88
75996;BME280;64681;49.738;9.004;2023-09-19T02:37:47;99078.72;;;16.64;96.65
75996;BME280;64681;49.738;9.004;2023-09-19T02:40:13;99084.16;;;16.71;96.60
75996;BME280;64681;49.738;9.004;2023-09-19T02:42:48;99089.94;;;16.70;96.35
75996;BME280;64681;49.738;9.004;2023-09-19T02:45:16;99091.84;;;16.69;96.04
75996;BME280;64681;49.738;9.004;2023-09-19T02:47:44;99086.38;;;16.58;97.04
75996;BME280;64681;49.738;9.004;2023-09-19T02:50:10;99090.56;;;16.49;97.56
75996;BME280;64681;49.738;9.004;2023-09-19T02:52:42;99083.22;;;16.45;97.88
75996;BME280;64681;49.738;9.004;2023-09-19T02:55:13;99086.69;;;16.39;98.39
75996;BME280;64681;49.738;9.004;2023-09-19T02:57:40;99093.13;;;16.27;99.14
75996;BME280;64681;49.738;9.004;2023-09-19T03:00:09;99101.34;;;16.45;98.39
75996;BME280;64681;49.738;9.004;2023-09-19T03:02:36;99100.94;;;16.46;98.14
75996;BME280;64681;49.738;9.004;2023-09-19T03:05:03;99100.94;;;16.43;98.50
75996;BME280;64681;49.738;9.004;2023-09-19T03:07:29;99108.25;;;16.42;98.76
75996;BME280;64681;49.738;9.004;2023-09-19T03:09:55;99105.06;;;16.26;99.64
75996;BME280;64681;49.738;9.004;2023-09-19T03:12:20;99115.88;;;16.33;98.65
75996;BME280;64681;49.738;9.004;2023-09-19T03:14:46;99113.56;;;16.32;98.89
75996;BME280;64681;49.738;9.004;2023-09-19T03:17:11;99119.34;;;16.34;98.16
75996;BME280;64681;49.738;9.004;2023-09-19T03:19:39;99118.22;;;15.86;100.00
75996;BME280;64681;49.738;9.004;2023-09-19T03:22:05;99127.28;;;16.12;100.00
75996;BME280;64681;49.738;9.004;2023-09-19T03:24:31;99129.16;;;16.04;100.00
75996;BME280;64681;49.738;9.004;2023-09-19T03:26:57;99123.03;;;16.11;100.00
75996;BME280;64681;49.738;9.004;2023-09-19T03:29:23;99123.06;;;16.18;98.69
75996;BME280;64681;49.738;9.004;2023-09-19T03:31:48;99135.78;;;16.18;98.54
75996;BME280;64681;49.738;9.004;2023-09-19T03:34:14;99131.69;;;15.86;99.62
75996;BME280;64681;49.738;9.004;2023-09-19T03:36:39;99132.47;;;15.90;98.40
75996;BME280;64681;49.738;9.004;2023-09-19T03:39:06;99141.84;;;15.66;99.30
75996;BME280;64681;49.738;9.004;2023-09-19T03:41:32;99136.66;;;15.50;100.00
75996;BME280;64681;49.738;9.004;2023-09-19T03:43:58;99131.97;;;15.40;100.00
75996;BME280;64681;49.738;9.004;2023-09-19T03:46:24;99134.75;;;15.16;100.00
75996;BME280;64681;49.738;9.004;2023-09-19T03:48:50;99133.38;;;15.30;100.00
75996;BME280;64681;49.738;9.004;2023-09-19T03:51:16;99127.16;;;15.22;100.00
75996;BME280;64681;49.738;9.004;2023-09-19T03:53:41;99127.91;;;15.23;100.00
75996;BME280;64681;49.738;9.004;2023-09-19T03:56:07;99131.97;;;15.09;100.00
75996;BME280;64681;49.738;9.004;2023-09-19T03:58:33;99131.69;;;15.18;100.00
75996;BME280;64681;49.738;9.004;2023-09-19T04:01:03;99128.25;;;15.17;100.00
75996;BME280;64681;49.738;9.004;2023-09-19T04:03:29;99127.09;;;15.18;100.00
75996;BME280;64681;49.738;9.004;2023-09-19T04:06:01;99130.38;;;15.04;100.00
75996;BME280;64681;49.738;9.004;2023-09-19T04:08:27;99126.88;;;15.00;100.00
75996;BME280;64681;49.738;9.004;2023-09-19T04:10:53;99136.56;;;15.05;100.00
75996;BME280;64681;49.738;9.004;2023-09-19T04:13:18;99146.47;;;15.01;100.00
75996;BME280;64681;49.738;9.004;2023-09-19T04:15:44;99149.50;;;14.96;100.00
75996;BME280;64681;49.738;9.004;2023-09-19T04:18:11;99149.13;;;14.97;100.00
75996;BME280;64681;49.738;9.004;2023-09-19T04:20:37;99144.31;;;14.83;100.00
75996;BME280;64681;49.738;9.004;2023-09-19T04:23:02;99149.84;;;14.94;100.00
75996;BME280;64681;49.738;9.004;2023-09-19T04:25:29;99146.09;;;15.02;100.00
75996;BME280;64681;49.738;9.004;2023-09-19T04:27:55;99149.53;;;14.99;100.00
75996;BME280;64681;49.738;9.004;2023-09-19T04:30:21;99153.06;;;14.77;100.00
75996;BME280;64681;49.738;9.004;2023-09-19T04:32:46;99159.84;;;14.67;100.00
75996;BME280;64681;49.738;9.004;2023-09-19T04:35:16;99158.09;;;14.78;100.00
75996;BME280;64681;49.738;9.004;2023-09-19T04:37:41;99160.34;;;14.76;100.00
75996;BME280;64681;49.738;9.004;2023-09-19T04:40:08;99152.47;;;14.64;100.00
75996;BME280;64681;49.738;9.004;2023-09-19T04:42:43;99160.25;;;14.69;100.00
75996;BME280;64681;49.738;9.004;2023-09-19T04:45:09;99157.44;;;14.62;100.00
75996;BME280;64681;49.738;9.004;2023-09-19T04:47:38;99162.94;;;14.69;100.00
75996;BME280;64681;49.738;9.004;2023-09-19T04:50:08;99163.34;;;14.71;100.00
75996;BME280;64681;49.738;9.004;2023-09-19T04:52:41;99162.81;;;14.62;100.00
75996;BME280;64681;49.738;9.004;2023-09-19T04:55:17;99176.75;;;14.67;100.00
75996;BME280;64681;49.738;9.004;2023-09-19T04:57:47;99175.28;;;14.74;100.00
75996;BME280;64681;49.738;9.004;2023-09-19T05:00:18;99189.91;;;14.76;100.00
75996;BME280;64681;49.738;9.004;2023-09-19T05:02:45;99197.22;;;14.76;100.00
75996;BME280;64681;49.738;9.004;2023-09-19T05:05:11;99197.53;;;14.70;100.00
75996;BME280;64681;49.738;9.004;2023-09-19T05:07:42;99188.25;;;14.68;100.00
75996;BME280;64681;49.738;9.004;2023-09-19T05:10:08;99197.88;;;14.46;100.00
75996;BME280;64681;49.738;9.004;2023-09-19T05:12:34;99205.03;;;14.38;100.00
75996;BME280;64681;49.738;9.004;2023-09-19T05:15:02;99211.22;;;14.38;100.00
75996;BME280;64681;49.738;9.004;2023-09-19T05:17:28;99209.06;;;14.48;100.00
75996;BME280;64681;49.738;9.004;2023-09-19T05:19:54;99213.75;;;14.54;100.00
75996;BME280;64681;49.738;9.004;2023-09-19T05:22:19;99212.31;;;14.61;100.00
75996;BME280;64681;49.738;9.004;2023-09-19T05:24:45;99221.66;;;14.67;100.00
75996;BME280;64681;49.738;9.004;2023-09-19T05:27:14;99226.75;;;14.52;100.00
75996;BME280;64681;49.738;9.004;2023-09-19T05:29:44;99228.75;;;14.55;100.00
75996;BME280;64681;49.738;9.004;2023-09-19T05:32:11;99230.78;;;14.62;100.00
75996;BME280;64681;49.738;9.004;2023-09-19T05:34:37;99217.53;;;14.73;100.00
75996;BME280;64681;49.738;9.004;2023-09-19T05:37:04;99227.53;;;14.76;100.00
75996;BME280;64681;49.738;9.004;2023-09-19T05:39:33;99225.34;;;14.59;100.00
75996;BME280;64681;49.738;9.004;2023-09-19T05:41:59;99225.94;;;14.71;100.00
75996;BME280;64681;49.738;9.004;2023-09-19T05:44:28;99237.97;;;14.78;100.00
75996;BME280;64681;49.738;9.004;2023-09-19T05:46:53;99238.88;;;14.89;100.00
75996;BME280;64681;49.738;9.004;2023-09-19T05:49:22;99233.97;;;14.95;100.00
75996;BME280;64681;49.738;9.004;2023-09-19T05:51:47;99226.72;;;14.99;100.00
75996;BME280;64681;49.738;9.004;2023-09-19T05:54:13;99238.69;;;15.01;100.00
75996;BME280;64681;49.738;9.004;2023-09-19T05:56:38;99234.28;;;15.16;100.00
75996;BME280;64681;49.738;9.004;2023-09-19T05:59:04;99247.41;;;14.95;100.00
75996;BME280;64681;49.738;9.004;2023-09-19T06:01:30;99243.53;;;15.19;100.00
75996;BME280;64681;49.738;9.004;2023-09-19T06:03:58;99244.97;;;15.40;100.00
75996;BME280;64681;49.738;9.004;2023-09-19T06:06:25;99247.59;;;15.36;100.00
75996;BME280;64681;49.738;9.004;2023-09-19T06:08:51;99238.94;;;15.19;100.00
75996;BME280;64681;49.738;9.004;2023-09-19T06:11:16;99241.72;;;15.27;99.84
75996;BME280;64681;49.738;9.004;2023-09-19T06:13:45;99244.22;;;15.43;99.17
75996;BME280;64681;49.738;9.004;2023-09-19T06:16:12;99257.75;;;15.50;95.88
75996;BME280;64681;49.738;9.004;2023-09-19T06:18:38;99261.88;;;15.71;97.47
75996;BME280;64681;49.738;9.004;2023-09-19T06:21:04;99264.22;;;15.76;96.31
75996;BME280;64681;49.738;9.004;2023-09-19T06:23:34;99262.97;;;15.35;95.05
75996;BME280;64681;49.738;9.004;2023-09-19T06:26:00;99264.59;;;15.44;93.93
75996;BME280;64681;49.738;9.004;2023-09-19T06:28:25;99257.28;;;15.44;93.60
75996;BME280;64681;49.738;9.004;2023-09-19T06:30:54;99258.81;;;15.72;94.02
75996;BME280;64681;49.738;9.004;2023-09-19T06:33:19;99258.63;;;15.88;92.22
75996;BME280;64681;49.738;9.004;2023-09-19T06:35:47;99257.34;;;16.12;90.32
75996;BME280;64681;49.738;9.004;2023-09-19T06:38:13;99263.34;;;15.98;88.36
75996;BME280;64681;49.738;9.004;2023-09-19T06:40:41;99264.69;;;16.16;87.32
75996;BME280;64681;49.738;9.004;2023-09-19T06:43:10;99264.41;;;15.90;86.80
75996;BME280;64681;49.738;9.004;2023-09-19T06:45:36;99278.06;;;16.46;87.27
75996;BME280;64681;49.738;9.004;2023-09-19T06:48:01;99281.09;;;16.41;83.83
75996;BME280;64681;49.738;9.004;2023-09-19T06:50:28;99287.88;;;16.69;83.56
75996;BME280;64681;49.738;9.004;2023-09-19T06:52:58;99288.03;;;16.87;83.51
75996;BME280;64681;49.738;9.004;2023-09-19T06:55:25;99295.34;;;16.90;83.42
75996;BME280;64681;49.738;9.004;2023-09-19T06:57:54;99307.81;;;17.02;83.31
75996;BME280;64681;49.738;9.004;2023-09-19T07:00:19;99300.13;;;17.04;80.93
75996;BME280;64681;49.738;9.004;2023-09-19T07:03:02;99317.81;;;16.98;80.93
75996;BME280;64681;49.738;9.004;2023-09-19T07:05:33;99311.66;;;17.01;80.60
75996;BME280;64681;49.738;9.004;2023-09-19T07:07:59;99322.19;;;17.17;81.63
75996;BME280;64681;49.738;9.004;2023-09-19T07:10:27;99318.75;;;17.20;79.61
75996;BME280;64681;49.738;9.004;2023-09-19T07:13:01;99326.63;;;17.54;78.26
75996;BME280;64681;49.738;9.004;2023-09-19T07:15:29;99325.50;;;17.55;78.20
75996;BME280;64681;49.738;9.004;2023-09-19T07:17:56;99321.28;;;17.65;78.20
75996;BME280;64681;49.738;9.004;2023-09-19T07:20:23;99324.88;;;17.87;76.73
75996;BME280;64681;49.738;9.004;2023-09-19T07:22:52;99320.97;;;17.77;74.79
75996;BME280;64681;49.738;9.004;2023-09-19T07:25:17;99326.53;;;17.36;76.39
75996;BME280;64681;49.738;9.004;2023-09-19T07:27:43;99331.56;;;17.41;78.79
75996;BME280;64681;49.738;9.004;2023-09-19T07:30:10;99339.47;;;17.75;79.13
75996;BME280;64681;49.738;9.004;2023-09-19T07:32:37;99346.94;;;17.96;79.51
75996;BME280;64681;49.738;9.004;2023-09-19T07:35:04;99355.53;;;18.24;76.77
75996;BME280;64681;49.738;9.004;2023-09-19T07:37:31;99347.66;;;17.90;75.21
75996;BME280;64681;49.738;9.004;2023-09-19T07:40:03;99353.50;;;17.99;75.81
75996;BME280;64681;49.738;9.004;2023-09-19T07:42:37;99361.31;;;18.22;74.53
75996;BME280;64681;49.738;9.004;2023-09-19T07:45:07;99354.59;;;17.91;75.47
75996;BME280;64681;49.738;9.004;2023-09-19T07:47:33;99359.75;;;18.17;74.19
75996;BME280;64681;49.738;9.004;2023-09-19T07:49:59;99359.31;;;18.04;72.41
75996;BME280;64681;49.738;9.004;2023-09-19T07:52:27;99363.59;;;18.20;71.63
75996;BME280;64681;49.738;9.004;2023-09-19T07:54:53;99367.16;;;18.53;69.12
75996;BME280;64681;49.738;9.004;2023-09-19T07:57:19;99373.75;;;18.70;69.82
75996;BME280;64681;49.738;9.004;2023-09-19T07:59:45;99376.84;;;18.65;69.11
75996;BME280;64681;49.738;9.004;2023-09-19T08:02:11;99386.94;;;18.90;67.41
75996;BME280;64681;49.738;9.004;2023-09-19T08:04:42;99389.97;;;18.52;66.62
75996;BME280;64681;49.738;9.004;2023-09-19T08:07:08;99392.09;;;17.99;66.42
75996;BME280;64681;49.738;9.004;2023-09-19T08:09:34;99388.69;;;18.17;68.43
75996;BME280;64681;49.738;9.004;2023-09-19T08:12:00;99384.88;;;18.22;67.54
75996;BME280;64681;49.738;9.004;2023-09-19T08:14:29;99390.75;;;18.56;66.62
75996;BME280;64681;49.738;9.004;2023-09-19T08:16:58;99391.13;;;18.58;68.57
75996;BME280;64681;49.738;9.004;2023-09-19T08:19:24;99396.94;;;18.75;69.08
75996;BME280;64681;49.738;9.004;2023-09-19T08:21:56;99395.47;;;19.13;67.51
75996;BME280;64681;49.738;9.004;2023-09-19T08:24:27;99396.63;;;19.16;63.94
75996;BME280;64681;49.738;9.004;2023-09-19T08:26:57;99379.63;;;19.34;63.16
75996;BME280;64681;49.738;9.004;2023-09-19T08:29:24;99392.34;;;19.48;66.03
75996;BME280;64681;49.738;9.004;2023-09-19T08:31:54;99400.91;;;19.24;65.70
75996;BME280;64681;49.738;9.004;2023-09-19T08:34:22;99406.31;;;19.03;64.88
75996;BME280;64681;49.738;9.004;2023-09-19T08:36:53;99400.91;;;19.24;64.78
75996;BME280;64681;49.738;9.004;2023-09-19T08:39:22;99400.84;;;19.64;62.97
75996;BME280;64681;49.738;9.004;2023-09-19T08:41:48;99403.56;;;19.50;64.79
75996;BME280;64681;49.738;9.004;2023-09-19T08:44:14;99408.56;;;19.66;62.73
75996;BME280;64681;49.738;9.004;2023-09-19T08:46:41;99404.72;;;19.49;61.70
75996;BME280;64681;49.738;9.004;2023-09-19T08:49:36;99400.09;;;19.60;63.49
75996;BME280;64681;49.738;9.004;2023-09-19T08:52:19;99402.44;;;19.40;61.92
75996;BME280;64681;49.738;9.004;2023-09-19T08:54:51;99410.94;;;19.20;62.09
75996;BME280;64681;49.738;9.004;2023-09-19T08:57:19;99409.75;;;19.50;63.76
75996;BME280;64681;49.738;9.004;2023-09-19T08:59:48;99407.78;;;19.69;63.36
75996;BME280;64681;49.738;9.004;2023-09-19T09:02:16;99404.34;;;19.25;63.59
75996;BME280;64681;49.738;9.004;2023-09-19T09:04:45;99405.84;;;19.76;61.74
75996;BME280;64681;49.738;9.004;2023-09-19T09:07:13;99403.94;;;19.70;60.14
75996;BME280;64681;49.738;9.004;2023-09-19T09:09:39;99419.44;;;19.22;59.96
75996;BME280;64681;49.738;9.004;2023-09-19T09:12:14;99398.19;;;19.35;58.06
75996;BME280;64681;49.738;9.004;2023-09-19T09:14:45;99407.06;;;19.43;59.57
75996;BME280;64681;49.738;9.004;2023-09-19T09:17:13;99401.22;;;19.73;56.06
75996;BME280;64681;49.738;9.004;2023-09-19T09:19:38;99398.03;;;20.00;58.00
75996;BME280;64681;49.738;9.004;2023-09-19T09:22:11;99400.75;;;20.11;57.09
75996;BME280;64681;49.738;9.004;2023-09-19T09:24:53;99407.38;;;19.77;57.66
75996;BME280;64681;49.738;9.004;2023-09-19T09:27:20;99403.94;;;19.63;56.81
75996;BME280;64681;49.738;9.004;2023-09-19T09:29:50;99405.16;;;19.14;56.97
75996;BME280;64681;49.738;9.004;2023-09-19T09:34:44;99399.69;;;19.51;57.49
75996;BME280;64681;49.738;9.004;2023-09-19T09:37:16;99394.72;;;19.35;55.93
75996;BME280;64681;49.738;9.004;2023-09-19T09:39:55;99403.59;;;19.21;57.08
75996;BME280;64681;49.738;9.004;2023-09-19T09:42:34;99405.16;;;19.11;55.17
75996;BME280;64681;49.738;9.004;2023-09-19T09:45:23;99414.44;;;19.21;56.46
75996;BME280;64681;49.738;9.004;2023-09-19T09:48:01;99400.09;;;19.02;56.42
75996;BME280;64681;49.738;9.004;2023-09-19T09:50:47;99415.59;;;19.34;58.79
75996;BME280;64681;49.738;9.004;2023-09-19T09:53:30;99412.78;;;19.81;55.75
75996;BME280;64681;49.738;9.004;2023-09-19T09:55:58;99407.81;;;19.58;55.38
75996;BME280;64681;49.738;9.004;2023-09-19T09:58:25;99411.25;;;19.84;54.59
75996;BME280;64681;49.738;9.004;2023-09-19T10:00:56;99407.78;;;19.69;53.82
75996;BME280;64681;49.738;9.004;2023-09-19T10:03:37;99406.22;;;19.89;51.25
75996;BME280;64681;49.738;9.004;2023-09-19T10:06:12;99405.34;;;20.18;51.31
75996;BME280;64681;49.738;9.004;2023-09-19T10:09:09;99409.25;;;20.09;53.12
75996;BME280;64681;49.738;9.004;2023-09-19T10:12:06;99409.97;;;20.24;51.34
75996;BME280;64681;49.738;9.004;2023-09-19T10:14:37;99405.09;;;19.58;53.32
75996;BME280;64681;49.738;9.004;2023-09-19T10:17:05;99405.06;;;19.80;52.28
75996;BME280;64681;49.738;9.004;2023-09-19T10:19:45;99410.16;;;19.23;53.78
75996;BME280;64681;49.738;9.004;2023-09-19T10:22:16;99404.34;;;19.36;54.73
75996;BME280;64681;49.738;9.004;2023-09-19T10:24:48;99402.44;;;19.33;54.19
75996;BME280;64681;49.738;9.004;2023-09-19T10:27:16;99397.75;;;19.62;51.60
75996;BME280;64681;49.738;9.004;2023-09-19T10:29:44;99387.31;;;19.53;49.92
75996;BME280;64681;49.738;9.004;2023-09-19T10:32:14;99393.50;;;19.65;51.83
75996;BME280;64681;49.738;9.004;2023-09-19T10:34:46;99401.25;;;19.48;50.52
75996;BME280;64681;49.738;9.004;2023-09-19T10:37:13;99414.41;;;19.57;49.84
75996;BME280;64681;49.738;9.004;2023-09-19T10:39:40;99413.25;;;19.54;50.57
75996;BME280;64681;49.738;9.004;2023-09-19T10:42:11;99406.28;;;19.39;49.88
75996;BME280;64681;49.738;9.004;2023-09-19T10:44:41;99422.16;;;19.40;50.27
75996;BME280;64681;49.738;9.004;2023-09-19T10:47:09;99410.53;;;19.54;50.14
75996;BME280;64681;49.738;9.004;2023-09-19T10:49:43;99422.50;;;19.64;52.80
75996;BME280;64681;49.738;9.004;2023-09-19T10:52:17;99420.94;;;19.77;51.24
75996;BME280;64681;49.738;9.004;2023-09-19T10:54:50;99418.22;;;19.85;51.51
75996;BME280;64681;49.738;9.004;2023-09-19T10:57:21;99408.22;;;19.56;54.32
75996;BME280;64681;49.738;9.004;2023-09-19T11:00:08;99421.38;;;19.40;53.58
75996;BME280;64681;49.738;9.004;2023-09-19T11:06:10;99411.59;;;20.00;53.07
75996;BME280;64681;49.738;9.004;2023-09-19T11:08:59;99410.38;;;20.19;52.36
75996;BME280;64681;49.738;9.004;2023-09-19T11:30:33;99386.88;;;19.80;53.76
75996;BME280;64681;49.738;9.004;2023-09-19T11:33:22;99384.09;;;20.09;54.82
75996;BME280;64681;49.738;9.004;2023-09-19T11:36:11;99381.78;;;20.07;54.27
75996;BME280;64681;49.738;9.004;2023-09-19T11:43:50;99369.50;;;20.59;53.78
75996;BME280;64681;49.738;9.004;2023-09-19T11:46:17;99365.72;;;20.46;53.38
75996;BME280;64681;49.738;9.004;2023-09-19T11:48:52;99373.19;;;20.20;57.14
75996;BME280;64681;49.738;9.004;2023-09-19T11:51:23;99375.25;;;19.80;55.28
75996;BME280;64681;49.738;9.004;2023-09-19T11:53:54;99365.59;;;19.71;53.50
75996;BME280;64681;49.738;9.004;2023-09-19T11:56:22;99365.59;;;19.75;56.49
75996;BME280;64681;49.738;9.004;2023-09-19T11:58:54;99362.34;;;20.20;53.76
75996;BME280;64681;49.738;9.004;2023-09-19T12:01:29;99358.25;;;19.72;56.06
75996;BME280;64681;49.738;9.004;2023-09-19T12:03:57;99359.41;;;19.78;55.05
75996;BME280;64681;49.738;9.004;2023-09-19T12:06:24;99368.31;;;19.64;56.08
75996;BME280;64681;49.738;9.004;2023-09-19T12:08:51;99352.13;;;19.42;56.92
75996;BME280;64681;49.738;9.004;2023-09-19T12:11:19;99359.41;;;19.74;56.43
75996;BME280;64681;49.738;9.004;2023-09-19T12:13:47;99350.09;;;19.86;54.90
75996;BME280;64681;49.738;9.004;2023-09-19T12:16:21;99353.19;;;19.74;56.20
75996;BME280;64681;49.738;9.004;2023-09-19T12:18:48;99350.91;;;19.69;55.97
75996;BME280;64681;49.738;9.004;2023-09-19T12:21:30;99341.19;;;19.75;52.88
75996;BME280;64681;49.738;9.004;2023-09-19T12:24:13;99343.13;;;19.78;53.28
75996;BME280;64681;49.738;9.004;2023-09-19T12:26:40;99348.13;;;19.98;54.81
75996;BME280;64681;49.738;9.004;2023-09-19T12:29:17;99347.38;;;19.93;53.20
75996;BME280;64681;49.738;9.004;2023-09-19T12:31:56;99349.56;;;20.17;52.02
75996;BME280;64681;49.738;9.004;2023-09-19T12:34:32;99343.84;;;20.07;52.38
75996;BME280;64681;49.738;9.004;2023-09-19T12:39:44;99333.47;;;19.84;51.96
75996;BME280;64681;49.738;9.004;2023-09-19T12:42:15;99347.41;;;19.75;54.91
75996;BME280;64681;49.738;9.004;2023-09-19T12:44:47;99345.78;;;20.00;54.84
75996;BME280;64681;49.738;9.004;2023-09-19T12:47:16;99337.28;;;19.98;53.62
75996;BME280;64681;49.738;9.004;2023-09-19T12:50:08;99328.81;;;19.74;54.45
75996;BME280;64681;49.738;9.004;2023-09-19T12:52:40;99336.16;;;19.88;52.97
75996;BME280;64681;49.738;9.004;2023-09-19T12:55:06;99330.63;;;20.13;53.21
75996;BME280;64681;49.738;9.004;2023-09-19T12:57:35;99326.44;;;19.94;54.13
75996;BME280;64681;49.738;9.004;2023-09-19T13:00:04;99319.41;;;20.15;51.56
75996;BME280;64681;49.738;9.004;2023-09-19T13:02:37;99325.16;;;20.20;52.87
75996;BME280;64681;49.738;9.004;2023-09-19T13:05:06;99317.28;;;20.40;51.06
75996;BME280;64681;49.738;9.004;2023-09-19T13:07:42;99316.31;;;20.73;50.06
75996;BME280;64681;49.738;9.004;2023-09-19T13:10:13;99327.31;;;20.47;50.70
75996;BME280;64681;49.738;9.004;2023-09-19T13:12:43;99312.91;;;20.58;49.45
75996;BME280;64681;49.738;9.004;2023-09-19T13:15:15;99319.19;;;20.47;51.79
75996;BME280;64681;49.738;9.004;2023-09-19T13:17:49;99317.63;;;20.50;51.33
75996;BME280;64681;49.738;9.004;2023-09-19T13:20:22;99325.59;;;20.75;48.70
75996;BME280;64681;49.738;9.004;2023-09-19T13:22:55;99305.78;;;20.82;49.23
75996;BME280;64681;49.738;9.004;2023-09-19T13:25:26;99310.91;;;20.65;49.24
75996;BME280;64681;49.738;9.004;2023-09-19T13:27:55;99302.09;;;20.50;49.70
75996;BME280;64681;49.738;9.004;2023-09-19T13:30:25;99304.28;;;20.70;50.74
75996;BME280;64681;49.738;9.004;2023-09-19T13:32:52;99301.00;;;20.44;49.95
75996;BME280;64681;49.738;9.004;2023-09-19T13:35:18;99304.59;;;20.23;48.94
75996;BME280;64681;49.738;9.004;2023-09-19T13:37:46;99299.41;;;20.47;48.33
75996;BME280;64681;49.738;9.004;2023-09-19T13:40:17;99298.97;;;20.59;47.80
75996;BME280;64681;49.738;9.004;2023-09-19T13:42:43;99293.16;;;20.57;49.33
75996;BME280;64681;49.738;9.004;2023-09-19T13:45:09;99291.19;;;20.58;48.86
75996;BME280;64681;49.738;9.004;2023-09-19T13:47:38;99298.16;;;20.59;49.93
75996;BME280;64681;49.738;9.004;2023-09-19T13:50:04;99288.00;;;20.74;48.68
75996;BME280;64681;49.738;9.004;2023-09-19T13:52:31;99291.81;;;20.83;50.10
75996;BME280;64681;49.738;9.004;2023-09-19T13:54:57;99284.53;;;21.15;48.68
75996;BME280;64681;49.738;9.004;2023-09-19T13:57:24;99291.47;;;21.19;48.00